createdAt,value
2018-02-18T00:00:18.164Z,100.00
2018-02-18T00:02:45.696Z,100.00
2018-02-18T00:05:13.333Z,100.00
2018-02-18T00:07:40.807Z,100.00
2018-02-18T00:10:08.279Z,100.00
2018-02-18T00:12:35.748Z,100.00
2018-02-18T00:15:05.036Z,100.00
2018-02-18T00:17:32.537Z,100.00
2018-02-18T00:19:59.986Z,100.00
2018-02-18T00:22:27.685Z,100.00
2018-02-18T00:24:55.158Z,100.00
2018-02-18T00:27:22.618Z,100.00
2018-02-18T00:29:50.120Z,100.00
2018-02-18T00:32:17.729Z,100.00
2018-02-18T00:34:45.315Z,100.00
2018-02-18T00:37:12.898Z,100.00
2018-02-18T00:39:40.358Z,100.00
2018-02-18T00:42:11.957Z,100.00
2018-02-18T00:44:42.497Z,100.00
2018-02-18T00:47:09.974Z,100.00
2018-02-18T00:49:37.506Z,100.00
2018-02-18T00:52:05.502Z,100.00
2018-02-18T00:54:32.985Z,100.00
2018-02-18T00:57:00.650Z,100.00
2018-02-18T00:59:28.268Z,100.00
2018-02-18T01:01:55.775Z,100.00
2018-02-18T01:04:23.351Z,100.00
2018-02-18T01:06:50.807Z,100.00
2018-02-18T01:09:18.310Z,100.00
2018-02-18T01:11:45.833Z,100.00
2018-02-18T01:14:13.292Z,100.00
2018-02-18T01:16:40.864Z,100.00
2018-02-18T01:19:08.498Z,100.00
2018-02-18T01:21:36.898Z,100.00
2018-02-18T01:24:04.576Z,100.00
2018-02-18T01:26:34.524Z,100.00
2018-02-18T01:29:02.051Z,100.00
2018-02-18T01:31:29.509Z,100.00
2018-02-18T01:33:56.986Z,100.00
2018-02-18T01:36:24.448Z,100.00
2018-02-18T01:38:51.935Z,100.00
2018-02-18T01:41:19.387Z,100.00
2018-02-18T01:43:46.851Z,100.00
2018-02-18T01:46:14.305Z,100.00
2018-02-18T01:48:41.776Z,100.00
2018-02-18T01:51:09.226Z,100.00
2018-02-18T01:53:36.719Z,100.00
2018-02-18T01:56:04.211Z,100.00
2018-02-18T01:58:31.667Z,100.00
2018-02-18T02:00:59.129Z,100.00
2018-02-18T02:03:26.597Z,100.00
2018-02-18T02:05:54.100Z,100.00
2018-02-18T02:08:21.552Z,100.00
2018-02-18T02:10:49.027Z,100.00
2018-02-18T02:13:16.479Z,100.00
2018-02-18T02:15:43.980Z,100.00
2018-02-18T02:18:11.441Z,100.00
2018-02-18T02:20:38.950Z,100.00
2018-02-18T02:23:06.491Z,100.00
2018-02-18T02:25:33.961Z,100.00
2018-02-18T02:28:01.429Z,100.00
2018-02-18T02:30:28.931Z,100.00
2018-02-18T02:32:56.396Z,100.00
2018-02-18T02:35:23.857Z,99.40
2018-02-18T02:37:51.336Z,99.95
2018-02-18T02:40:18.788Z,99.58
2018-02-18T02:42:46.229Z,98.58
2018-02-18T02:45:13.683Z,98.57
2018-02-18T02:47:42.136Z,97.27
2018-02-18T02:50:09.608Z,96.80
2018-02-18T02:52:37.079Z,97.56
2018-02-18T02:55:04.550Z,98.08
2018-02-18T02:57:33.975Z,98.58
2018-02-18T03:00:01.483Z,98.47
2018-02-18T03:02:28.938Z,98.70
2018-02-18T03:04:56.390Z,97.83
2018-02-18T03:07:23.887Z,97.44
2018-02-18T03:09:51.342Z,98.23
2018-02-18T03:12:18.791Z,96.60
2018-02-18T03:14:46.256Z,96.49
2018-02-18T03:17:13.713Z,98.19
2018-02-18T03:19:41.194Z,97.54
2018-02-18T03:22:08.644Z,97.44
2018-02-18T03:24:36.107Z,97.18
2018-02-18T03:27:03.559Z,96.73
2018-02-18T03:29:31.556Z,96.44
2018-02-18T03:31:59.011Z,95.75
2018-02-18T03:34:26.481Z,95.58
2018-02-18T03:36:53.938Z,95.68
2018-02-18T03:39:21.396Z,95.50
2018-02-18T03:41:48.848Z,95.24
2018-02-18T03:44:16.297Z,95.81
2018-02-18T03:46:43.749Z,95.05
2018-02-18T03:49:12.224Z,94.73
2018-02-18T03:51:39.689Z,94.90
2018-02-18T03:54:07.144Z,95.76
2018-02-18T03:56:34.582Z,95.87
2018-02-18T03:59:02.063Z,95.68
2018-02-18T04:01:29.528Z,95.29
2018-02-18T04:03:56.983Z,94.86
2018-02-18T04:06:24.453Z,95.50
2018-02-18T04:08:51.906Z,96.49
2018-02-18T04:11:19.368Z,97.76
2018-02-18T04:13:46.856Z,97.32
2018-02-18T04:16:14.306Z,96.07
2018-02-18T04:18:41.772Z,96.31
2018-02-18T04:21:09.214Z,96.00
2018-02-18T04:23:36.676Z,95.57
2018-02-18T04:26:04.129Z,96.18
2018-02-18T04:28:31.595Z,96.07
2018-02-18T04:30:59.042Z,96.01
2018-02-18T04:33:26.503Z,95.85
2018-02-18T04:35:53.948Z,95.00
2018-02-18T04:38:21.416Z,95.02
2018-02-18T04:40:48.878Z,94.97
2018-02-18T04:43:16.332Z,95.32
2018-02-18T04:45:43.817Z,94.77
2018-02-18T04:48:11.303Z,96.95
2018-02-18T04:50:38.746Z,97.12
2018-02-18T04:53:06.212Z,97.08
2018-02-18T04:55:33.683Z,96.60
2018-02-18T04:58:01.152Z,96.14
2018-02-18T05:00:28.616Z,96.55
2018-02-18T05:02:56.075Z,97.81
2018-02-18T05:05:23.526Z,97.45
2018-02-18T05:07:50.986Z,97.40
2018-02-18T05:10:18.442Z,97.44
2018-02-18T05:12:45.898Z,97.21
2018-02-18T05:15:13.347Z,98.02
2018-02-18T05:17:40.812Z,97.32
2018-02-18T05:20:08.264Z,96.50
2018-02-18T05:22:35.727Z,94.76
2018-02-18T05:25:03.247Z,96.24
2018-02-18T05:27:30.694Z,96.05
2018-02-18T05:29:59.202Z,96.31
2018-02-18T05:32:26.688Z,96.11
2018-02-18T05:34:54.130Z,94.98
2018-02-18T05:37:21.590Z,94.54
2018-02-18T05:39:49.052Z,93.70
2018-02-18T05:42:16.509Z,94.99
2018-02-18T05:44:43.967Z,96.77
2018-02-18T05:47:11.424Z,96.20
2018-02-18T05:49:38.883Z,97.21
2018-02-18T05:52:06.338Z,96.17
2018-02-18T05:54:33.796Z,96.22
2018-02-18T05:57:01.253Z,95.99
2018-02-18T05:59:28.721Z,96.14
2018-02-18T06:01:56.194Z,95.67
2018-02-18T06:04:23.706Z,95.76
2018-02-18T06:06:51.166Z,96.49
2018-02-18T06:09:18.634Z,95.82
2018-02-18T06:11:46.089Z,95.29
2018-02-18T06:14:13.536Z,94.80
2018-02-18T06:16:41.032Z,94.88
2018-02-18T06:19:08.482Z,94.48
2018-02-18T06:21:35.940Z,95.10
2018-02-18T06:24:03.390Z,95.03
2018-02-18T06:26:30.846Z,94.23
2018-02-18T06:28:58.303Z,94.09
2018-02-18T06:31:25.763Z,93.76
2018-02-18T06:33:53.252Z,92.82
2018-02-18T06:36:20.704Z,92.76
2018-02-18T06:38:48.144Z,92.16
2018-02-18T06:41:15.609Z,91.89
2018-02-18T06:43:43.061Z,92.00
2018-02-18T06:46:10.530Z,91.51
2018-02-18T06:48:37.982Z,91.37
2018-02-18T06:51:05.431Z,90.88
2018-02-18T06:53:32.891Z,91.19
2018-02-18T06:56:00.370Z,91.07
2018-02-18T06:58:27.848Z,90.71
2018-02-18T07:00:55.299Z,91.02
2018-02-18T07:03:22.759Z,90.75
2018-02-18T07:05:50.200Z,90.52
2018-02-18T07:08:17.674Z,89.91
2018-02-18T07:10:45.129Z,90.28
2018-02-18T07:13:12.587Z,89.72
2018-02-18T07:15:40.047Z,89.92
2018-02-18T07:18:07.538Z,89.43
2018-02-18T07:20:35.010Z,89.59
2018-02-18T07:23:02.476Z,88.93
2018-02-18T07:25:29.980Z,88.37
2018-02-18T07:27:57.461Z,88.44
2018-02-18T07:30:24.924Z,87.65
2018-02-18T07:32:52.373Z,88.14
2018-02-18T07:35:19.837Z,87.88
2018-02-18T07:37:47.293Z,86.66
2018-02-18T07:40:14.752Z,85.99
2018-02-18T07:42:42.208Z,86.48
2018-02-18T07:45:10.036Z,85.94
2018-02-18T07:47:37.490Z,85.09
2018-02-18T07:50:04.952Z,85.23
2018-02-18T07:52:32.423Z,84.65
2018-02-18T07:55:00.052Z,84.23
2018-02-18T07:57:27.758Z,83.83
2018-02-18T07:59:55.201Z,82.99
2018-02-18T08:02:22.671Z,82.59
2018-02-18T08:04:50.130Z,81.91
2018-02-18T08:07:17.599Z,81.69
2018-02-18T08:09:45.063Z,80.52
2018-02-18T08:12:12.516Z,80.17
2018-02-18T08:14:39.984Z,79.93
2018-02-18T08:17:07.443Z,80.81
2018-02-18T08:19:34.902Z,79.63
2018-02-18T08:22:02.362Z,80.47
2018-02-18T08:24:29.811Z,79.97
2018-02-18T08:26:57.266Z,78.35
2018-02-18T08:29:24.826Z,76.54
2018-02-18T08:31:52.691Z,75.29
2018-02-18T08:34:20.142Z,74.38
2018-02-18T08:36:47.606Z,74.42
2018-02-18T08:39:15.116Z,75.78
2018-02-18T08:41:43.163Z,75.26
2018-02-18T08:44:10.629Z,75.52
2018-02-18T08:46:38.100Z,74.32
2018-02-18T08:49:05.572Z,73.36
2018-02-18T08:51:33.030Z,74.14
2018-02-18T08:54:00.656Z,72.56
2018-02-18T08:56:28.126Z,73.41
2018-02-18T08:58:55.653Z,73.57
2018-02-18T09:01:23.448Z,71.67
2018-02-18T09:03:50.897Z,71.14
2018-02-18T09:06:18.358Z,71.22
2018-02-18T09:08:45.806Z,72.82
2018-02-18T09:11:13.366Z,71.75
2018-02-18T09:13:40.843Z,71.35
2018-02-18T09:16:08.302Z,71.96
2018-02-18T09:18:35.766Z,70.19
2018-02-18T09:21:03.221Z,69.71
2018-02-18T09:23:31.374Z,70.75
2018-02-18T09:25:58.871Z,70.06
2018-02-18T09:28:26.333Z,70.08
2018-02-18T09:30:54.553Z,69.13
2018-02-18T09:33:22.242Z,69.63
2018-02-18T09:35:51.026Z,68.24
2018-02-18T09:38:18.492Z,67.76
2018-02-18T09:40:47.998Z,68.63
2018-02-18T09:43:17.012Z,67.60
2018-02-18T09:45:44.830Z,68.66
2018-02-18T09:48:13.699Z,69.74
2018-02-18T09:50:41.149Z,69.16
2018-02-18T09:53:08.631Z,69.49
2018-02-18T09:55:37.130Z,67.92
2018-02-18T09:58:04.587Z,67.73
2018-02-18T10:00:34.250Z,66.21
2018-02-18T10:03:01.773Z,64.91
2018-02-18T10:05:29.290Z,65.91
2018-02-18T10:07:56.722Z,66.29
2018-02-18T10:10:24.318Z,65.92
2018-02-18T10:12:51.787Z,64.85
2018-02-18T10:15:19.291Z,65.49
2018-02-18T10:17:46.883Z,64.93
2018-02-18T10:20:15.432Z,66.14
2018-02-18T10:22:42.997Z,65.25
2018-02-18T10:25:10.465Z,65.14
2018-02-18T10:27:37.951Z,63.63
2018-02-18T10:30:05.893Z,61.24
2018-02-18T10:32:33.410Z,60.97
2018-02-18T10:35:00.961Z,59.93
2018-02-18T10:37:28.433Z,59.30
2018-02-18T10:39:56.155Z,60.49
2018-02-18T10:42:23.671Z,60.32
2018-02-18T10:44:51.126Z,59.11
2018-02-18T10:47:22.278Z,58.31
2018-02-18T10:49:49.766Z,57.94
2018-02-18T10:52:17.231Z,56.57
2018-02-18T10:54:44.698Z,57.34
2018-02-18T10:57:12.340Z,57.66
2018-02-18T10:59:39.791Z,54.39
2018-02-18T11:02:07.260Z,55.23
2018-02-18T11:04:35.619Z,54.85
2018-02-18T11:07:03.192Z,57.54
2018-02-18T11:09:30.663Z,58.44
2018-02-18T11:11:58.119Z,55.82
2018-02-18T11:14:25.566Z,59.39
2018-02-18T11:16:53.043Z,58.75
2018-02-18T11:19:20.496Z,57.33
2018-02-18T11:21:47.950Z,61.01
2018-02-18T11:24:15.432Z,62.09
2018-02-18T11:26:42.925Z,64.01
2018-02-18T11:29:10.378Z,64.01
2018-02-18T11:31:37.832Z,64.85
2018-02-18T11:34:05.288Z,64.89
2018-02-18T11:36:32.751Z,65.39
2018-02-18T11:39:00.213Z,66.28
2018-02-18T11:41:27.698Z,64.75
2018-02-18T11:43:55.179Z,65.67
2018-02-18T11:46:22.639Z,66.69
2018-02-18T11:48:50.109Z,65.17
2018-02-18T11:51:17.573Z,65.77
2018-02-18T11:53:45.029Z,64.96
2018-02-18T11:56:12.519Z,64.75
2018-02-18T11:58:39.992Z,65.36
2018-02-18T12:01:07.451Z,65.16
2018-02-18T12:03:34.954Z,65.96
2018-02-18T12:06:03.480Z,65.84
2018-02-18T12:08:30.946Z,64.96
2018-02-18T12:10:58.390Z,64.55
2018-02-18T12:13:29.031Z,64.43
2018-02-18T12:15:56.745Z,64.49
2018-02-18T12:18:25.932Z,66.04
2018-02-18T12:20:53.816Z,65.54
2018-02-18T12:23:22.232Z,64.98
2018-02-18T12:25:49.696Z,64.53
2018-02-18T12:28:17.145Z,63.71
2018-02-18T12:30:44.630Z,63.18
2018-02-18T12:33:13.357Z,63.69
2018-02-18T12:35:40.863Z,62.66
2018-02-18T12:38:09.490Z,63.04
2018-02-18T12:40:37.097Z,62.08
2018-02-18T12:43:04.578Z,65.07
2018-02-18T12:45:32.038Z,63.75
2018-02-18T12:47:59.506Z,61.70
2018-02-18T12:50:27.442Z,62.40
2018-02-18T12:52:54.940Z,61.41
2018-02-18T12:55:22.396Z,60.82
2018-02-18T12:57:50.011Z,60.23
2018-02-18T13:00:17.534Z,58.77
2018-02-18T13:02:46.278Z,60.11
2018-02-18T13:05:14.901Z,59.41
2018-02-18T13:07:43.415Z,55.98
2018-02-18T13:10:10.914Z,57.75
2018-02-18T13:12:38.628Z,59.72
2018-02-18T13:15:06.769Z,58.97
2018-02-18T13:17:34.239Z,60.85
2018-02-18T13:20:01.710Z,60.35
2018-02-18T13:22:29.817Z,59.56
2018-02-18T13:24:57.294Z,60.36
2018-02-18T13:27:26.212Z,59.54
2018-02-18T13:29:54.273Z,60.30
2018-02-18T13:32:21.769Z,60.43
2018-02-18T13:34:51.431Z,58.99
2018-02-18T13:37:19.180Z,59.16
2018-02-18T13:39:46.699Z,60.21
2018-02-18T13:42:14.254Z,59.07
2018-02-18T13:44:41.744Z,60.02
2018-02-18T13:47:09.210Z,56.95
2018-02-18T13:49:37.100Z,59.83
2018-02-18T13:52:04.781Z,60.59
2018-02-18T13:54:32.306Z,58.24
2018-02-18T13:56:59.788Z,58.67
2018-02-18T13:59:27.277Z,60.44
2018-02-18T14:01:55.544Z,57.56
2018-02-18T14:04:24.284Z,60.50
2018-02-18T14:06:51.745Z,60.99
2018-02-18T14:09:19.239Z,59.84
2018-02-18T14:11:46.729Z,62.73
2018-02-18T14:14:15.022Z,62.97
2018-02-18T14:16:42.491Z,63.12
2018-02-18T14:19:09.965Z,63.19
2018-02-18T14:21:37.410Z,63.76
2018-02-18T14:24:05.341Z,64.19
2018-02-18T14:26:33.436Z,65.45
2018-02-18T14:29:00.951Z,65.47
2018-02-18T14:31:29.612Z,66.18
2018-02-18T14:33:57.172Z,68.48
2018-02-18T14:36:24.620Z,68.07
2018-02-18T14:38:53.315Z,68.05
2018-02-18T14:41:32.670Z,70.32
2018-02-18T14:44:12.119Z,70.00
2018-02-18T14:46:51.436Z,70.79
2018-02-18T14:49:30.732Z,72.15
2018-02-18T14:52:10.335Z,73.53
2018-02-18T14:57:42.457Z,70.77
2018-02-18T15:00:09.988Z,71.62
2018-02-18T15:02:37.477Z,70.88
2018-02-18T15:05:04.941Z,71.94
2018-02-18T15:07:32.446Z,72.05
2018-02-18T15:09:59.897Z,72.50
2018-02-18T15:12:27.430Z,71.48
2018-02-18T15:14:54.907Z,72.46
2018-02-18T15:17:22.396Z,74.56
2018-02-18T15:19:49.861Z,73.47
2018-02-18T15:22:17.341Z,74.55
2018-02-18T15:24:44.799Z,74.46
2018-02-18T15:27:12.250Z,73.50
2018-02-18T15:29:39.704Z,73.27
2018-02-18T15:32:07.187Z,74.21
2018-02-18T15:34:34.695Z,74.51
2018-02-18T15:37:02.155Z,74.94
2018-02-18T15:39:29.632Z,74.73
2018-02-18T15:41:57.110Z,75.59
2018-02-18T15:44:24.560Z,74.98
2018-02-18T15:46:52.115Z,76.14
2018-02-18T15:49:19.561Z,76.80
2018-02-18T15:51:47.035Z,76.83
2018-02-18T15:54:14.490Z,77.39
2018-02-18T15:56:42.031Z,77.46
2018-02-18T15:59:09.512Z,76.10
2018-02-18T16:01:36.969Z,76.82
2018-02-18T16:04:04.421Z,78.41
2018-02-18T16:06:31.901Z,79.21
2018-02-18T16:08:59.361Z,78.67
2018-02-18T16:11:26.870Z,77.99
2018-02-18T16:13:54.334Z,79.04
2018-02-18T16:16:21.832Z,79.57
2018-02-18T16:18:49.291Z,80.01
2018-02-18T16:21:16.773Z,80.22
2018-02-18T16:23:44.267Z,80.78
2018-02-18T16:26:11.723Z,79.49
2018-02-18T16:28:39.530Z,80.79
2018-02-18T16:31:07.705Z,80.50
2018-02-18T16:33:35.325Z,81.37
2018-02-18T16:36:02.843Z,81.21
2018-02-18T16:38:31.362Z,81.43
2018-02-18T16:40:59.072Z,81.05
2018-02-18T16:43:26.606Z,80.80
2018-02-18T16:45:54.077Z,80.56
2018-02-18T16:48:21.523Z,80.84
2018-02-18T16:50:48.974Z,82.35
2018-02-18T16:53:16.445Z,82.48
2018-02-18T16:55:44.266Z,82.26
2018-02-18T16:58:11.990Z,82.01
2018-02-18T17:00:39.830Z,82.50
2018-02-18T17:03:07.328Z,82.35
2018-02-18T17:05:35.312Z,83.34
2018-02-18T17:08:02.955Z,81.81
2018-02-18T17:10:30.414Z,82.64
2018-02-18T17:12:57.874Z,82.21
2018-02-18T17:15:26.432Z,83.17
2018-02-18T17:17:54.554Z,82.08
2018-02-18T17:20:22.111Z,82.42
2018-02-18T17:22:49.643Z,82.97
2018-02-18T17:25:17.906Z,82.89
2018-02-18T17:27:45.423Z,83.08
2018-02-18T17:30:13.990Z,83.37
2018-02-18T17:32:41.533Z,82.98
2018-02-18T17:35:09.005Z,83.41
2018-02-18T17:37:37.154Z,83.67
2018-02-18T17:40:07.874Z,83.85
2018-02-18T17:42:38.855Z,84.52
2018-02-18T17:45:06.514Z,83.93
2018-02-18T17:47:34.343Z,84.72
2018-02-18T17:50:01.850Z,84.00
2018-02-18T17:52:29.293Z,84.49
2018-02-18T17:54:56.768Z,85.08
2018-02-18T17:57:24.276Z,84.84
2018-02-18T17:59:51.706Z,84.38
2018-02-18T18:02:19.176Z,84.46
2018-02-18T18:04:46.619Z,84.10
2018-02-18T18:07:14.326Z,83.75
2018-02-18T18:09:41.773Z,84.12
2018-02-18T18:12:09.231Z,84.45
2018-02-18T18:14:36.747Z,84.24
2018-02-18T18:17:04.276Z,84.69
2018-02-18T18:19:31.737Z,84.41
2018-02-18T18:21:59.229Z,84.74
2018-02-18T18:24:26.694Z,84.83
2018-02-18T18:26:54.198Z,83.50
2018-02-18T18:29:21.734Z,83.94
2018-02-18T18:31:49.200Z,83.67
2018-02-18T18:34:16.865Z,84.54
2018-02-18T18:36:45.546Z,84.18
2018-02-18T18:39:13.050Z,84.03
2018-02-18T18:41:40.808Z,83.92
2018-02-18T18:44:08.681Z,83.91
2018-02-18T18:46:36.301Z,84.83
2018-02-18T18:49:03.795Z,84.82
2018-02-18T18:51:31.278Z,85.45
2018-02-18T18:53:58.734Z,85.22
2018-02-18T18:56:26.190Z,85.22
2018-02-18T18:58:54.177Z,85.08
2018-02-18T19:01:22.048Z,85.09
2018-02-18T19:03:49.918Z,84.83
2018-02-18T19:06:17.579Z,84.37
2018-02-18T19:08:45.044Z,84.62
2018-02-18T19:11:12.737Z,85.42
2018-02-18T19:13:40.378Z,85.52
2018-02-18T19:16:11.249Z,83.34
2018-02-18T19:18:38.848Z,82.76
2018-02-18T19:21:06.417Z,82.43
2018-02-18T19:23:33.870Z,83.96
2018-02-18T19:26:01.907Z,83.79
2018-02-18T19:28:29.384Z,82.65
2018-02-18T19:30:57.060Z,83.63
2018-02-18T19:33:24.529Z,82.38
2018-02-18T19:35:52.036Z,83.83
2018-02-18T19:38:22.972Z,82.20
2018-02-18T19:40:50.639Z,82.75
2018-02-18T19:43:18.423Z,82.90
2018-02-18T19:45:45.876Z,80.43
2018-02-18T19:48:13.394Z,81.29
2018-02-18T19:50:41.181Z,82.25
2018-02-18T19:53:17.565Z,82.85
2018-02-18T19:55:45.110Z,82.70
2018-02-18T19:58:12.782Z,81.30
2018-02-18T20:00:40.416Z,81.45
2018-02-18T20:03:07.990Z,80.73
2018-02-18T20:05:35.468Z,79.37
2018-02-18T20:08:08.904Z,81.68
2018-02-18T20:10:36.457Z,81.13
2018-02-18T20:13:03.898Z,82.14
2018-02-18T20:15:31.426Z,82.52
2018-02-18T20:17:58.990Z,82.05
2018-02-18T20:20:26.896Z,82.86
2018-02-18T20:22:59.692Z,81.90
2018-02-18T20:25:27.431Z,80.97
2018-02-18T20:27:55.072Z,81.02
2018-02-18T20:30:23.538Z,80.57
2018-02-18T20:32:50.995Z,80.10
2018-02-18T20:35:18.972Z,79.70
2018-02-18T20:37:47.101Z,79.15
2018-02-18T20:40:14.703Z,79.45
2018-02-18T20:42:42.158Z,79.40
2018-02-18T20:45:11.717Z,80.33
2018-02-18T20:47:39.163Z,79.77
2018-02-18T20:50:06.678Z,79.93
2018-02-18T20:52:34.151Z,79.19
2018-02-18T20:55:01.594Z,79.00
2018-02-18T20:57:29.058Z,78.05
2018-02-18T20:59:56.515Z,77.92
2018-02-18T21:02:24.126Z,77.10
2018-02-18T21:04:51.572Z,75.70
2018-02-18T21:07:19.049Z,76.17
2018-02-18T21:09:46.512Z,76.24
2018-02-18T21:12:14.273Z,76.60
2018-02-18T21:14:41.739Z,77.18
2018-02-18T21:17:09.243Z,76.70
2018-02-18T21:19:36.750Z,78.01
2018-02-18T21:22:04.241Z,78.39
2018-02-18T21:24:31.788Z,78.27
2018-02-18T21:26:59.320Z,79.90
2018-02-18T21:29:26.823Z,78.81
2018-02-18T21:31:54.280Z,78.37
2018-02-18T21:34:21.726Z,78.32
2018-02-18T21:36:49.195Z,77.98
2018-02-18T21:39:16.661Z,77.40
2018-02-18T21:41:44.274Z,78.63
2018-02-18T21:44:11.794Z,79.83
2018-02-18T21:46:39.326Z,77.73
2018-02-18T21:49:06.862Z,78.87
2018-02-18T21:51:34.336Z,80.39
2018-02-18T21:54:01.856Z,76.96
2018-02-18T21:56:29.324Z,77.96
2018-02-18T21:58:56.793Z,77.78
2018-02-18T22:01:24.281Z,77.81
2018-02-18T22:03:51.745Z,78.03
2018-02-18T22:06:19.206Z,78.48
2018-02-18T22:08:46.676Z,77.90
2018-02-18T22:11:14.128Z,78.47
2018-02-18T22:13:41.606Z,77.27
2018-02-18T22:16:09.131Z,78.84
2018-02-18T22:18:36.889Z,79.58
2018-02-18T22:21:04.410Z,78.54
2018-02-18T22:23:31.932Z,79.97
2018-02-18T22:25:59.708Z,78.70
2018-02-18T22:28:27.294Z,78.24
2018-02-18T22:30:54.768Z,79.62
2018-02-18T22:33:22.220Z,79.33
2018-02-18T22:35:52.504Z,77.78
2018-02-18T22:38:19.995Z,77.77
2018-02-18T22:40:47.463Z,77.20
2018-02-18T22:43:15.255Z,79.10
2018-02-18T22:45:42.698Z,79.62
2018-02-18T22:48:10.170Z,78.62
2018-02-18T22:50:37.618Z,78.99
2018-02-18T22:53:05.078Z,74.74
2018-02-18T22:55:32.533Z,76.83
2018-02-18T22:57:59.982Z,78.98
2018-02-18T23:00:27.486Z,78.30
2018-02-18T23:02:55.021Z,78.48
2018-02-18T23:05:28.062Z,76.46
2018-02-18T23:07:55.524Z,78.74
2018-02-18T23:10:22.999Z,78.60
2018-02-18T23:12:50.441Z,79.11
2018-02-18T23:15:17.891Z,78.68
2018-02-18T23:17:45.362Z,78.95
2018-02-18T23:20:12.828Z,77.71
2018-02-18T23:22:40.294Z,77.77
2018-02-18T23:25:07.749Z,78.29
2018-02-18T23:27:35.268Z,78.52
2018-02-18T23:30:03.349Z,78.07
2018-02-18T23:32:30.842Z,78.23
2018-02-18T23:34:58.312Z,77.36
2018-02-18T23:37:25.758Z,78.48
2018-02-18T23:39:53.199Z,79.04
2018-02-18T23:42:20.670Z,79.01
2018-02-18T23:44:48.211Z,78.86
2018-02-18T23:47:15.704Z,79.37
2018-02-18T23:49:43.161Z,79.54
2018-02-18T23:52:10.611Z,78.23
2018-02-18T23:54:38.072Z,78.88
2018-02-18T23:57:05.521Z,78.61
2018-02-18T23:59:32.997Z,79.72
